Ipava, Illinois
Current Conditions -  °F | °C
As of 6:15 AM on Saturday 20 Dec 2014 (Local Time) from KMQB Reporting Station
Haze Haze  
Wind Chill: 30°   Ceiling: 6000
Heat Index: 30°   Visibility: 5mi
Dew Point: 28°   Wind: 3mph
Humidity: 93%   Direction: 130°SE
Pressure: 30.26"   Gusts: NA
Location:  40.35°N, 90.32°W
Report Text: KMQB 201215Z AUTO 13003KT 5SM BR OVC060 M01/M02 A3026 RMK AO2 T10111021
Loading
Personal Weather Stations






























Interactive Weather Map New forecast layout! Learn more

10-Day Weather Forecast

Advertisements
Track Severe Weather on mobile